Time;durP1;ratioP1;P1;durP2;ratioP2;P2;SDS_P1;SDS_P2;PMS_P1;PMS_P2;Temp;Humidity;BMP_temperature;BMP_pressure;BME280_temperature;BME280_humidity;BME280_pressure;Samples;Min_cycle;Max_cycle;Signal;HPM_P1;HPM_P2
2023/10/02 00:01:18;;;;;;;13.20;9.57;;;19.10;91.70;;;;;;5053718;28;21082;-57
2023/10/02 00:03:47;;;;;;;14.60;8.80;;;19.00;91.60;;;;;;5053725;28;20426;-57
2023/10/02 00:06:16;;;;;;;14.90;9.17;;;19.00;91.60;;;;;;5053937;28;20495;-57
2023/10/02 00:08:49;;;;;;;11.73;7.60;;;19.00;91.60;;;;;;5053971;28;20515;-57
2023/10/02 00:16:58;;;;;;;16.33;7.57;;;19.00;91.80;;;;;;5053912;28;20875;-57
2023/10/02 00:19:27;;;;;;;11.80;8.43;;;18.90;91.80;;;;;;5053785;28;20466;-57
2023/10/02 00:21:57;;;;;;;12.70;8.27;;;18.90;91.90;;;;;;5053577;28;20453;-57
2023/10/02 00:24:25;;;;;;;14.17;8.97;;;18.90;92.00;;;;;;5054501;28;20441;-57
2023/10/02 00:26:52;;;;;;;12.93;7.87;;;18.90;92.10;;;;;;5053595;28;20863;-57
2023/10/02 00:29:19;;;;;;;16.67;8.70;;;18.90;92.00;;;;;;5053464;28;20473;-57
2023/10/02 00:31:50;;;;;;;11.10;8.03;;;18.90;92.00;;;;;;5053528;28;20445;-57
2023/10/02 00:34:30;;;;;;;12.57;8.57;;;18.80;91.90;;;;;;5053582;28;20480;-58
2023/10/02 00:36:57;;;;;;;15.40;9.10;;;18.80;91.90;;;;;;5053403;28;20472;-58
2023/10/02 00:39:30;;;;;;;13.30;8.57;;;18.80;92.00;;;;;;5053423;28;20462;-57
2023/10/02 00:42:16;;;;;;;11.90;8.17;;;18.80;92.10;;;;;;5053284;28;20796;-57
2023/10/02 00:44:54;;;;;;;11.50;8.10;;;18.70;92.10;;;;;;5053054;28;20433;-58
2023/10/02 00:47:45;;;;;;;12.33;7.97;;;18.70;92.10;;;;;;5053380;28;20430;-58
2023/10/02 00:50:16;;;;;;;13.87;9.87;;;18.70;92.10;;;;;;5053104;28;20477;-57
2023/10/02 00:52:47;;;;;;;13.63;9.03;;;18.70;92.20;;;;;;5053221;28;20426;-57
2023/10/02 00:55:15;;;;;;;11.73;8.40;;;18.70;92.20;;;;;;5053325;28;20437;-57
2023/10/02 00:57:45;;;;;;;14.20;9.00;;;18.60;92.10;;;;;;5053096;28;20535;-58
2023/10/02 01:00:30;;;;;;;11.80;7.80;;;18.60;92.10;;;;;;5053402;28;20469;-58
2023/10/02 01:03:01;;;;;;;14.10;9.17;;;18.60;92.10;;;;;;5057747;28;20466;-58
2023/10/02 01:05:41;;;;;;;12.33;8.30;;;18.50;92.10;;;;;;5075714;28;20835;-57
2023/10/02 01:08:23;;;;;;;11.37;8.80;;;18.50;92.10;;;;;;5077498;28;20429;-58
2023/10/02 01:10:56;;;;;;;12.53;8.40;;;18.50;92.10;;;;;;5078239;28;20555;-57
2023/10/02 01:13:26;;;;;;;13.27;8.07;;;18.40;92.10;;;;;;5077412;28;20432;-57
2023/10/02 01:15:54;;;;;;;12.60;9.10;;;18.30;92.00;;;;;;5077274;28;20914;-57
2023/10/02 01:18:22;;;;;;;15.33;8.77;;;18.30;92.50;;;;;;5077298;28;20448;-57
2023/10/02 01:20:53;;;;;;;15.30;9.70;;;18.30;92.20;;;;;;5077419;28;20460;-57
2023/10/02 01:23:25;;;;;;;15.30;9.40;;;18.30;92.30;;;;;;5076812;28;20891;-57
2023/10/02 01:25:57;;;;;;;10.83;7.67;;;18.20;92.30;;;;;;5077048;28;20819;-57
2023/10/02 01:28:25;;;;;;;11.70;7.77;;;18.20;92.20;;;;;;5077272;28;20464;-57
2023/10/02 01:30:55;;;;;;;10.27;7.40;;;18.20;92.30;;;;;;5077002;28;20464;-58
2023/10/02 01:33:26;;;;;;;12.20;7.90;;;18.20;92.30;;;;;;5076927;28;20444;-57
2023/10/02 01:35:55;;;;;;;13.70;8.00;;;18.20;92.40;;;;;;5076481;28;20910;-57
2023/10/02 01:38:29;;;;;;;16.13;8.77;;;18.10;92.40;;;;;;5076865;28;20441;-57
2023/10/02 01:41:04;;;;;;;13.20;8.67;;;18.10;92.40;;;;;;5076646;28;20500;-57
2023/10/02 01:43:35;;;;;;;10.97;7.83;;;18.10;92.40;;;;;;5076599;28;20440;-57
2023/10/02 01:46:03;;;;;;;12.90;8.17;;;18.10;92.40;;;;;;5076694;28;20428;-57
2023/10/02 01:48:44;;;;;;;16.60;8.67;;;18.10;92.50;;;;;;5076654;28;20529;-57
2023/10/02 01:51:25;;;;;;;14.77;7.90;;;18.00;92.50;;;;;;5076242;28;20490;-57
2023/10/02 01:53:54;;;;;;;13.70;8.53;;;18.00;92.70;;;;;;5076216;28;20801;-57
2023/10/02 01:56:23;;;;;;;15.97;9.60;;;18.00;92.80;;;;;;5076066;28;21016;-58
2023/10/02 01:58:50;;;;;;;12.43;8.83;;;18.00;92.90;;;;;;5076366;28;20498;-57
2023/10/02 02:01:20;;;;;;;11.77;8.17;;;18.10;93.10;;;;;;5076005;28;20978;-57
2023/10/02 02:03:48;;;;;;;11.47;7.97;;;18.10;93.30;;;;;;5076079;28;20907;-58
2023/10/02 02:06:20;;;;;;;13.57;8.97;;;18.10;93.40;;;;;;5076312;28;20445;-58
2023/10/02 02:08:53;;;;;;;15.03;9.17;;;18.10;93.50;;;;;;5075851;28;20482;-57
2023/10/02 02:11:23;;;;;;;21.90;8.50;;;18.10;93.70;;;;;;5076228;28;20461;-57
2023/10/02 02:13:51;;;;;;;17.57;10.03;;;18.10;93.70;;;;;;5076142;28;20433;-57
2023/10/02 02:16:25;;;;;;;15.77;9.70;;;18.10;94.00;;;;;;5075954;28;20486;-57
2023/10/02 02:18:54;;;;;;;14.70;9.87;;;18.10;93.70;;;;;;5075402;28;20432;-57
2023/10/02 02:21:24;;;;;;;14.50;9.50;;;18.10;93.70;;;;;;5075913;28;20551;-57
2023/10/02 02:24:03;;;;;;;14.10;10.20;;;18.10;93.80;;;;;;5076021;28;20449;-57
2023/10/02 02:26:31;;;;;;;14.00;9.87;;;18.10;93.90;;;;;;5076412;28;20478;-57
2023/10/02 02:28:58;;;;;;;15.10;9.20;;;18.10;93.90;;;;;;5075990;28;20445;-58
2023/10/02 02:31:31;;;;;;;13.00;9.00;;;18.10;93.90;;;;;;5075427;28;20472;-57
2023/10/02 02:34:02;;;;;;;15.20;9.87;;;18.10;93.90;;;;;;5073756;28;20471;-56
2023/10/02 02:36:34;;;;;;;14.63;9.30;;;18.00;93.90;;;;;;5056159;28;20462;-57
2023/10/02 02:39:17;;;;;;;14.87;9.70;;;18.00;93.90;;;;;;5055703;28;20434;-57
2023/10/02 02:41:46;;;;;;;14.53;8.73;;;18.00;93.80;;;;;;5055505;28;20896;-57
2023/10/02 02:46:59;;;;;;;15.30;9.37;;;18.00;93.80;;;;;;5055786;28;20766;-57
2023/10/02 02:49:27;;;;;;;14.47;9.07;;;18.00;93.80;;;;;;5055015;28;20469;-57
2023/10/02 02:51:56;;;;;;;16.90;9.80;;;18.00;93.90;;;;;;5055035;28;20453;-57
2023/10/02 02:54:28;;;;;;;15.83;9.27;;;17.90;93.80;;;;;;5055412;28;20469;-57
2023/10/02 02:57:00;;;;;;;13.97;9.70;;;17.90;93.80;;;;;;5054934;28;20477;-57
2023/10/02 02:59:28;;;;;;;16.80;9.77;;;17.90;93.70;;;;;;5055334;28;20557;-57
2023/10/02 03:02:08;;;;;;;17.33;10.27;;;17.90;93.70;;;;;;5055118;28;20529;-57
2023/10/02 03:04:39;;;;;;;15.73;10.63;;;17.90;93.80;;;;;;5055116;28;20426;-57
2023/10/02 03:07:09;;;;;;;16.27;10.70;;;17.90;94.00;;;;;;5055179;28;20446;-57
2023/10/02 03:09:36;;;;;;;15.37;9.90;;;17.90;94.00;;;;;;5055667;28;20515;-57
2023/10/02 03:12:05;;;;;;;15.13;9.93;;;17.90;94.00;;;;;;5054906;28;20453;-57
2023/10/02 03:14:33;;;;;;;15.50;9.17;;;17.80;94.00;;;;;;5054564;28;20488;-56
2023/10/02 03:17:22;;;;;;;18.03;9.90;;;17.80;94.10;;;;;;5054605;28;20539;-57
2023/10/02 03:19:47;;;;;;;18.13;11.17;;;17.80;94.20;;;;;;5054469;28;20461;-57
2023/10/02 03:22:17;;;;;;;16.60;10.27;;;17.80;94.10;;;;;;5054831;28;20441;-57
2023/10/02 03:24:45;;;;;;;15.90;10.23;;;17.80;94.20;;;;;;5054711;28;20461;-57
2023/10/02 03:27:14;;;;;;;15.47;10.70;;;17.70;94.20;;;;;;5054684;28;20449;-57
2023/10/02 03:29:42;;;;;;;17.30;10.70;;;17.70;94.20;;;;;;5054690;28;20472;-57
2023/10/02 03:32:11;;;;;;;18.00;11.70;;;17.70;94.30;;;;;;5053396;28;20872;-57
2023/10/02 03:34:38;;;;;;;24.07;13.10;;;17.80;94.50;;;;;;5054597;28;20488;-57
2023/10/02 03:37:14;;;;;;;14.70;10.00;;;17.80;94.70;;;;;;5054527;28;20477;-57
2023/10/02 03:40:00;;;;;;;18.03;11.83;;;17.70;94.70;;;;;;5054457;28;20461;-57
2023/10/02 03:42:31;;;;;;;21.50;11.93;;;17.70;94.60;;;;;;5054554;28;20430;-57
2023/10/02 03:44:59;;;;;;;26.07;12.73;;;17.70;94.80;;;;;;5054228;28;20445;-57
2023/10/02 03:47:27;;;;;;;17.90;11.57;;;17.70;94.90;;;;;;5054372;28;20450;-57
2023/10/02 03:50:00;;;;;;;21.40;12.13;;;17.70;94.90;;;;;;5054095;28;20465;-57
2023/10/02 03:52:29;;;;;;;18.17;11.63;;;17.70;94.90;;;;;;5053944;28;20808;-57
2023/10/02 03:54:56;;;;;;;17.57;12.70;;;17.70;95.00;;;;;;5054163;28;20481;-57
2023/10/02 03:57:47;;;;;;;19.27;12.90;;;17.70;94.90;;;;;;5054034;28;20568;-57
2023/10/02 04:00:19;;;;;;;18.97;13.27;;;17.70;95.00;;;;;;5053785;28;21050;-57
2023/10/02 04:02:46;;;;;;;25.77;14.63;;;17.70;95.20;;;;;;5054159;28;20504;-57
2023/10/02 04:05:30;;;;;;;19.47;13.93;;;17.70;95.30;;;;;;5053701;28;20441;-57
2023/10/02 04:08:12;;;;;;;23.27;14.90;;;17.70;95.50;;;;;;5054708;28;20422;-57
2023/10/02 04:10:51;;;;;;;20.87;14.70;;;17.70;95.40;;;;;;5053914;28;20462;-57
2023/10/02 04:13:20;;;;;;;21.40;14.37;;;17.70;95.40;;;;;;5053636;28;20942;-57
2023/10/02 04:15:48;;;;;;;21.93;13.50;;;17.70;95.50;;;;;;5053861;28;20449;-57
2023/10/02 04:18:45;;;;;;;21.30;14.50;;;17.70;95.50;;;;;;5053731;28;20623;-57
2023/10/02 04:21:12;;;;;;;23.60;14.87;;;17.70;95.60;;;;;;5053424;28;20548;-57
2023/10/02 04:23:42;;;;;;;22.30;15.33;;;17.70;95.60;;;;;;5056494;28;20430;-56
2023/10/02 04:26:19;;;;;;;24.10;16.20;;;17.70;95.50;;;;;;5054824;28;20453;-57
2023/10/02 04:28:55;;;;;;;25.20;17.07;;;17.70;95.60;;;;;;5054508;28;20426;-57
2023/10/02 04:31:27;;;;;;;27.50;16.20;;;17.60;95.60;;;;;;5053953;28;20430;-57
2023/10/02 04:34:15;;;;;;;20.33;15.60;;;17.60;95.60;;;;;;5053755;28;20435;-57
2023/10/02 04:36:42;;;;;;;22.67;14.13;;;17.60;95.60;;;;;;5053534;28;20525;-57
2023/10/02 04:39:51;;;;;;;22.33;14.90;;;17.60;95.50;;;;;;5053442;28;20446;-57
2023/10/02 04:42:11;;;;;;;22.57;15.27;;;17.60;95.50;;;;;;5053134;28;20445;-57
2023/10/02 04:44:44;;;;;;;24.43;15.40;;;17.60;95.60;;;;;;5053449;28;20436;-57
2023/10/02 04:47:17;;;;;;;19.80;14.43;;;17.60;95.50;;;;;;5053501;28;20501;-57
2023/10/02 04:50:34;;;;;;;26.20;15.70;;;17.60;95.50;;;;;;5053455;28;20473;-57
2023/10/02 04:55:23;;;;;;;23.23;15.47;;;17.60;95.60;;;;;;5053378;28;20401;-57
2023/10/02 04:57:51;;;;;;;23.97;15.93;;;17.50;95.50;;;;;;5053227;28;20497;-57
2023/10/02 05:00:27;;;;;;;26.03;16.57;;;17.50;95.50;;;;;;5053269;28;20519;-57
2023/10/02 05:03:09;;;;;;;27.27;15.57;;;17.50;95.60;;;;;;5053350;28;20524;-57
2023/10/02 05:05:41;;;;;;;22.10;15.13;;;17.60;95.60;;;;;;5053311;28;20487;-57
2023/10/02 05:08:18;;;;;;;22.73;14.80;;;17.50;95.50;;;;;;5053139;28;20444;-57
2023/10/02 05:10:49;;;;;;;21.77;15.33;;;17.50;95.40;;;;;;5053317;28;20461;-57
2023/10/02 05:16:11;;;;;;;22.23;15.40;;;17.50;95.30;;;;;;5053518;28;20527;-57
2023/10/02 05:18:44;;;;;;;24.27;16.83;;;17.40;95.30;;;;;;5053271;28;20560;-58
2023/10/02 05:21:10;;;;;;;23.60;14.13;;;17.40;95.30;;;;;;5053736;28;20500;-57
2023/10/02 05:23:38;;;;;;;24.10;14.73;;;17.40;95.30;;;;;;5053726;28;20481;-57
2023/10/02 05:26:04;;;;;;;25.23;16.00;;;17.40;95.20;;;;;;5053536;28;20450;-57
2023/10/02 05:28:42;;;;;;;21.10;14.40;;;17.30;95.10;;;;;;5053730;28;20441;-57
2023/10/02 05:31:11;;;;;;;25.77;15.60;;;17.30;95.20;;;;;;5053398;28;20497;-57
2023/10/02 05:33:39;;;;;;;26.43;14.63;;;17.30;95.20;;;;;;5053604;28;20452;-57
2023/10/02 05:36:07;;;;;;;26.30;16.87;;;17.30;95.20;;;;;;5053544;28;20466;-57
2023/10/02 05:38:34;;;;;;;26.00;15.23;;;17.20;95.20;;;;;;5053053;28;20483;-57
2023/10/02 05:41:00;;;;;;;20.80;13.70;;;17.30;95.20;;;;;;5052473;28;20493;-57
2023/10/02 05:43:31;;;;;;;21.23;14.50;;;17.20;95.20;;;;;;5052849;28;20489;-57
2023/10/02 05:45:58;;;;;;;27.73;15.90;;;17.20;95.20;;;;;;5053139;28;20231;-57
2023/10/02 05:48:37;;;;;;;17.30;14.60;;;17.20;95.30;;;;;;5052791;28;20540;-57
2023/10/02 05:51:12;;;;;;;24.13;14.17;;;17.20;95.40;;;;;;5052509;28;20485;-56
2023/10/02 05:53:53;;;;;;;20.70;13.47;;;17.20;95.40;;;;;;5052620;28;20929;-57
2023/10/02 05:56:19;;;;;;;31.60;15.93;;;17.20;95.40;;;;;;5056471;28;20452;-57
2023/10/02 05:58:49;;;;;;;21.97;15.27;;;17.10;95.40;;;;;;5056364;28;20485;-57
2023/10/02 06:01:25;;;;;;;25.50;16.40;;;17.10;95.50;;;;;;5056009;28;20469;-57
2023/10/02 06:03:57;;;;;;;23.67;13.00;;;17.10;95.60;;;;;;5056161;28;20900;-57
2023/10/02 06:06:27;;;;;;;19.27;14.40;;;17.10;95.60;;;;;;5056080;28;20938;-56
2023/10/02 06:08:56;;;;;;;20.10;13.87;;;17.10;95.60;;;;;;5056883;28;20438;-57
2023/10/02 06:11:26;;;;;;;21.80;14.40;;;17.20;95.70;;;;;;5056236;28;20491;-57
2023/10/02 06:13:55;;;;;;;18.93;13.63;;;17.10;95.60;;;;;;5056116;28;20799;-57
2023/10/02 06:16:26;;;;;;;23.17;15.33;;;17.20;95.70;;;;;;5055975;28;20441;-57
2023/10/02 06:19:01;;;;;;;27.00;15.90;;;17.20;95.80;;;;;;5055911;28;20466;-57
2023/10/02 06:21:31;;;;;;;21.20;15.50;;;17.20;95.90;;;;;;5056072;28;20520;-57
2023/10/02 06:23:58;;;;;;;23.37;15.40;;;17.30;96.10;;;;;;5055846;28;21005;-57
2023/10/02 06:26:29;;;;;;;24.83;16.10;;;17.30;96.20;;;;;;5055892;28;20445;-57
2023/10/02 06:31:41;;;;;;;23.57;15.17;;;17.30;96.40;;;;;;5055692;28;20437;-57
2023/10/02 06:34:09;;;;;;;21.77;15.13;;;17.40;96.40;;;;;;5055935;28;20426;-57
2023/10/02 06:36:45;;;;;;;30.60;17.90;;;17.40;96.40;;;;;;5055728;28;20480;-57
2023/10/02 06:39:13;;;;;;;25.70;15.73;;;17.40;96.40;;;;;;5055518;28;20551;-57
2023/10/02 06:41:40;;;;;;;24.37;16.57;;;17.40;96.40;;;;;;5055441;28;20457;-58
2023/10/02 06:44:14;;;;;;;24.53;15.90;;;17.50;96.40;;;;;;5055462;28;20450;-56
2023/10/02 06:46:52;;;;;;;29.13;17.57;;;17.50;96.40;;;;;;5055295;28;20926;-57
2023/10/02 06:49:20;;;;;;;25.77;16.10;;;17.60;96.50;;;;;;5055429;28;20457;-57
2023/10/02 06:51:49;;;;;;;25.10;15.40;;;17.60;96.40;;;;;;5055222;28;20511;-57
2023/10/02 06:54:18;;;;;;;28.77;16.00;;;17.60;96.30;;;;;;5055371;28;20449;-57
2023/10/02 06:56:45;;;;;;;21.77;16.27;;;17.70;96.40;;;;;;5054971;28;20544;-57
2023/10/02 06:59:12;;;;;;;23.60;15.30;;;17.80;96.40;;;;;;5055175;28;20504;-57
2023/10/02 07:02:01;;;;;;;23.27;14.93;;;17.80;96.40;;;;;;5055111;28;20485;-56
2023/10/02 07:04:30;;;;;;;25.70;16.27;;;17.80;96.30;;;;;;5054788;28;20935;-57
2023/10/02 07:07:03;;;;;;;22.00;14.63;;;17.90;96.30;;;;;;5054884;28;20476;-57
2023/10/02 07:09:34;;;;;;;24.73;15.50;;;17.90;96.30;;;;;;5055064;28;20454;-57
2023/10/02 07:12:09;;;;;;;23.20;14.90;;;18.00;96.30;;;;;;5055132;28;20475;-57
2023/10/02 07:14:36;;;;;;;24.53;16.87;;;18.00;96.10;;;;;;5054606;28;20845;-57
2023/10/02 07:17:16;;;;;;;23.83;15.37;;;18.10;96.10;;;;;;5054927;28;20442;-57
2023/10/02 07:19:49;;;;;;;20.10;13.83;;;18.10;96.00;;;;;;5054545;28;20998;-57
2023/10/02 07:22:25;;;;;;;23.37;14.77;;;18.20;96.00;;;;;;5054846;28;20437;-57
2023/10/02 07:24:54;;;;;;;23.83;14.57;;;18.20;96.00;;;;;;5054869;28;20422;-57
2023/10/02 07:27:27;;;;;;;20.50;14.20;;;18.30;96.00;;;;;;5054837;28;20446;-57
2023/10/02 07:29:56;;;;;;;24.53;14.00;;;18.30;95.90;;;;;;5054509;28;20979;-57
2023/10/02 07:32:26;;;;;;;26.00;16.43;;;18.40;95.80;;;;;;5054663;28;20448;-57
2023/10/02 07:34:53;;;;;;;24.33;15.10;;;18.50;95.80;;;;;;5054584;28;20453;-57
2023/10/02 07:37:23;;;;;;;21.33;14.33;;;18.50;95.70;;;;;;5054694;28;20449;-57
2023/10/02 07:39:56;;;;;;;23.83;14.73;;;18.60;95.60;;;;;;5055021;28;20899;-57
2023/10/02 07:42:24;;;;;;;22.43;14.37;;;18.70;95.60;;;;;;5055253;28;20466;-57
2023/10/02 07:44:52;;;;;;;22.13;14.00;;;18.80;95.50;;;;;;5055061;28;20857;-56
2023/10/02 07:47:21;;;;;;;19.50;13.63;;;18.90;95.40;;;;;;5055056;28;20446;-57
2023/10/02 07:49:51;;;;;;;25.70;14.67;;;18.90;95.20;;;;;;5054281;28;20983;-57
2023/10/02 07:52:29;;;;;;;20.70;12.57;;;19.10;95.30;;;;;;5054468;28;20426;-57
2023/10/02 07:54:59;;;;;;;21.63;13.50;;;19.20;95.10;;;;;;5054533;28;20507;-57
2023/10/02 07:57:30;;;;;;;19.67;13.03;;;19.30;94.90;;;;;;5054316;28;20445;-57
2023/10/02 07:59:58;;;;;;;24.43;13.43;;;19.40;94.70;;;;;;5053884;28;21025;-57
2023/10/02 08:02:30;;;;;;;18.40;12.40;;;19.50;94.30;;;;;;5054178;28;20442;-57
2023/10/02 08:04:59;;;;;;;18.43;12.53;;;19.60;94.00;;;;;;5054250;28;20437;-57
2023/10/02 08:07:26;;;;;;;22.10;12.40;;;19.70;93.90;;;;;;5054238;28;20449;-57
2023/10/02 08:09:52;;;;;;;19.97;12.87;;;19.80;93.90;;;;;;5053993;28;20834;-57
2023/10/02 08:12:34;;;;;;;21.90;13.50;;;20.00;93.70;;;;;;5054268;28;20441;-57
2023/10/02 08:15:05;;;;;;;21.50;13.60;;;20.10;93.50;;;;;;5053827;28;20187;-56
2023/10/02 08:20:37;;;;;;;21.73;12.97;;;20.30;93.20;;;;;;5011795;28;20450;-57
2023/10/02 08:23:21;;;;;;;19.80;12.13;;;20.50;93.20;;;;;;5011852;28;20501;-57
2023/10/02 08:26:00;;;;;;;20.53;12.27;;;20.60;93.00;;;;;;5036888;28;20445;-57
2023/10/02 08:28:33;;;;;;;23.30;12.63;;;20.70;92.80;;;;;;5053673;28;20422;-57
2023/10/02 08:31:03;;;;;;;25.43;14.30;;;20.80;92.70;;;;;;5053620;28;20500;-57
2023/10/02 08:33:31;;;;;;;19.27;13.30;;;20.90;92.50;;;;;;5053588;28;20442;-57
2023/10/02 08:36:01;;;;;;;24.33;12.40;;;21.00;92.40;;;;;;5071239;28;20471;-57
2023/10/02 08:38:28;;;;;;;23.33;12.90;;;21.10;92.00;;;;;;5073404;28;20476;-58
2023/10/02 08:40:59;;;;;;;23.93;13.17;;;21.20;91.60;;;;;;5073055;28;20994;-57
2023/10/02 08:43:26;;;;;;;18.80;11.60;;;21.30;91.30;;;;;;5073860;28;20422;-57
2023/10/02 08:45:54;;;;;;;20.97;11.20;;;21.40;91.10;;;;;;5073433;28;20448;-58
2023/10/02 08:48:22;;;;;;;22.17;12.90;;;21.50;90.70;;;;;;5073407;28;20445;-58
2023/10/02 08:50:49;;;;;;;22.90;13.73;;;21.60;90.30;;;;;;5073029;28;20502;-58
2023/10/02 08:53:21;;;;;;;18.53;11.57;;;21.60;90.10;;;;;;5073366;28;20444;-58
2023/10/02 08:55:54;;;;;;;19.53;11.77;;;21.60;90.10;;;;;;5073364;28;20430;-58
2023/10/02 08:58:22;;;;;;;21.70;13.37;;;21.60;90.00;;;;;;5073027;28;20471;-58
2023/10/02 09:01:17;;;;;;;16.77;11.37;;;21.70;90.20;;;;;;5073193;28;20500;-58
2023/10/02 09:04:21;;;;;;;20.93;12.43;;;21.80;90.40;;;;;;5073192;28;20451;-58
2023/10/02 09:06:43;;;;;;;21.27;12.00;;;22.00;90.50;;;;;;5072917;28;20432;-58
2023/10/02 09:09:23;;;;;;;24.93;12.77;;;22.00;89.40;;;;;;5073258;28;20431;-58
2023/10/02 09:11:52;;;;;;;20.10;12.90;;;22.10;89.50;;;;;;5073354;28;20853;-58
2023/10/02 09:14:22;;;;;;;20.83;12.70;;;22.20;89.20;;;;;;5073166;28;20827;-57
2023/10/02 09:17:07;;;;;;;17.60;11.83;;;22.30;89.10;;;;;;5073202;28;20452;-58
2023/10/02 09:19:37;;;;;;;22.13;11.87;;;22.40;87.80;;;;;;5072758;28;21060;-58
2023/10/02 09:22:07;;;;;;;20.93;13.33;;;22.60;87.90;;;;;;5073049;28;20480;-58
2023/10/02 09:24:35;;;;;;;19.17;12.70;;;22.70;85.50;;;;;;5073115;28;20433;-58
2023/10/02 09:29:45;;;;;;;17.00;11.90;;;22.90;85.90;;;;;;5076898;28;20510;-58
2023/10/02 09:32:21;;;;;;;19.87;11.83;;;23.10;85.40;;;;;;5076718;28;20817;-58
2023/10/02 09:37:35;;;;;;;17.40;11.73;;;23.50;85.50;;;;;;5076347;28;20432;-58
2023/10/02 09:40:13;;;;;;;21.23;13.00;;;23.80;84.60;;;;;;5076374;28;20865;-58
2023/10/02 09:42:45;;;;;;;22.53;12.53;;;24.10;81.90;;;;;;5076955;28;20429;-58
2023/10/02 09:45:15;;;;;;;20.97;13.30;;;24.30;81.60;;;;;;5076661;28;20428;-55
2023/10/02 09:47:43;;;;;;;18.63;12.07;;;24.70;80.70;;;;;;5076626;28;20448;-56
2023/10/02 09:50:23;;;;;;;22.53;13.80;;;25.00;80.50;;;;;;5076484;28;20473;-56
2023/10/02 09:52:59;;;;;;;18.33;11.57;;;25.40;79.70;;;;;;5076591;28;20428;-56
2023/10/02 09:55:40;;;;;;;20.27;13.03;;;25.90;76.20;;;;;;5076535;28;20421;-56
2023/10/02 09:58:26;;;;;;;19.13;12.67;;;26.40;71.60;;;;;;5076510;28;20433;-56
2023/10/02 10:01:33;;;;;;;20.47;12.93;;;26.90;69.10;;;;;;5076624;28;20503;-56
2023/10/02 10:04:07;;;;;;;15.80;12.83;;;27.50;64.10;;;;;;5076416;28;20516;-56
2023/10/02 10:06:48;;;;;;;16.70;12.27;;;27.90;60.10;;;;;;5076309;28;20437;-56
2023/10/02 10:09:25;;;;;;;23.50;13.00;;;28.30;57.80;;;;;;5076279;28;20461;-56
2023/10/02 10:14:40;;;;;;;20.27;12.60;;;28.90;57.50;;;;;;5076153;28;20408;-56
2023/10/02 10:17:13;;;;;;;18.37;12.67;;;29.20;56.80;;;;;;5075727;28;20498;-56
2023/10/02 10:19:41;;;;;;;22.37;14.17;;;29.60;54.70;;;;;;5075680;28;21055;-56
2023/10/02 10:22:35;;;;;;;20.67;13.00;;;30.00;54.10;;;;;;5076007;28;20444;-56
2023/10/02 10:27:54;;;;;;;19.23;12.97;;;30.60;49.80;;;;;;5075456;28;20432;-56
2023/10/02 10:30:39;;;;;;;17.73;13.50;;;31.00;48.60;;;;;;5075827;28;20502;-56
2023/10/02 10:33:41;;;;;;;17.70;13.20;;;31.30;48.40;;;;;;5075771;28;20425;-56
2023/10/02 10:36:38;;;;;;;18.17;13.20;;;31.80;47.50;;;;;;5076894;28;20444;-56
2023/10/02 10:39:34;;;;;;;20.67;13.27;;;32.40;46.20;;;;;;5075555;28;20474;-56
2023/10/02 10:42:01;;;;;;;17.90;13.30;;;32.90;44.20;;;;;;5076301;28;20448;-56
2023/10/02 10:44:37;;;;;;;18.87;13.73;;;33.50;41.30;;;;;;5078475;28;20522;-56
2023/10/02 10:47:03;;;;;;;20.87;13.80;;;33.90;40.40;;;;;;5077286;28;20424;-56
2023/10/02 10:50:11;;;;;;;17.20;13.60;;;34.20;40.40;;;;;;5076494;28;20965;-56
2023/10/02 10:52:44;;;;;;;19.80;14.20;;;34.60;40.00;;;;;;5075996;28;20467;-56
2023/10/02 10:55:35;;;;;;;17.37;13.17;;;35.10;38.60;;;;;;5075849;28;20448;-56
2023/10/02 10:58:02;;;;;;;18.63;14.27;;;35.60;38.00;;;;;;5075710;28;20791;-56
2023/10/02 11:00:34;;;;;;;18.03;13.87;;;36.00;36.70;;;;;;5075302;28;20269;-56
2023/10/02 11:03:08;;;;;;;20.47;14.60;;;36.50;35.50;;;;;;5075374;28;20670;-56
2023/10/02 11:05:35;;;;;;;19.45;13.82;;;36.70;34.80;;;;;;5075175;28;20182;-56
2023/10/02 11:08:25;;;;;;;16.27;14.35;;;37.00;34.20;;;;;;5075339;28;20197;-56
2023/10/02 11:11:04;;;;;;;16.80;13.60;;;37.50;33.80;;;;;;5074956;28;20769;-56
2023/10/02 11:13:50;;;;;;;16.00;13.52;;;37.80;31.70;;;;;;5075352;28;20296;-56
2023/10/02 11:16:22;;;;;;;18.45;14.32;;;38.00;31.50;;;;;;5075050;28;20190;-56
2023/10/02 11:19:10;;;;;;;17.42;14.30;;;38.10;30.90;;;;;;5074963;28;20283;-56
2023/10/02 11:21:45;;;;;;;18.55;14.18;;;38.00;30.30;;;;;;5074894;28;20190;-56
2023/10/02 11:24:25;;;;;;;17.50;13.50;;;38.00;31.10;;;;;;5074958;28;20263;-56
2023/10/02 11:26:53;;;;;;;22.85;14.90;;;38.30;32.10;;;;;;5074831;28;20208;-56
2023/10/02 11:29:21;;;;;;;17.63;13.98;;;38.60;30.10;;;;;;5074762;28;20653;-56
2023/10/02 11:32:18;;;;;;;17.67;13.02;;;38.80;29.80;;;;;;5074712;28;20209;-56
2023/10/02 11:34:45;;;;;;;18.85;14.13;;;39.00;29.30;;;;;;5065695;28;20683;-56
2023/10/02 11:37:13;;;;;;;17.42;13.63;;;39.20;29.50;;;;;;5054670;28;20217;-56
2023/10/02 11:39:42;;;;;;;21.90;14.48;;;39.50;29.20;;;;;;5054451;28;20226;-56
2023/10/02 11:42:09;;;;;;;19.80;14.35;;;39.90;28.70;;;;;;5054554;28;20252;-56
2023/10/02 11:44:35;;;;;;;19.40;15.07;;;40.10;28.20;;;;;;5054479;28;20203;-57
2023/10/02 11:47:03;;;;;;;16.63;14.55;;;40.40;27.30;;;;;;5054659;28;20202;-57
2023/10/02 11:49:29;;;;;;;18.55;13.65;;;40.50;27.40;;;;;;5054448;28;20562;-57
2023/10/02 11:52:00;;;;;;;19.70;14.82;;;40.70;27.70;;;;;;5053031;28;20252;-57
2023/10/02 11:54:26;;;;;;;16.30;13.40;;;40.80;26.60;;;;;;5054387;28;20276;-57
2023/10/02 11:56:56;;;;;;;18.23;14.70;;;40.80;26.70;;;;;;5054313;28;20206;-57
2023/10/02 11:59:23;;;;;;;18.42;13.98;;;40.80;26.20;;;;;;5054190;28;20254;-57
2023/10/02 12:01:51;;;;;;;16.63;13.93;;;40.80;27.10;;;;;;5054106;28;20198;-57
2023/10/02 12:04:18;;;;;;;15.52;12.88;;;41.10;26.50;;;;;;5054289;28;20637;-57
2023/10/02 12:06:44;;;;;;;19.00;13.70;;;41.40;25.80;;;;;;5054102;28;20229;-57
2023/10/02 12:09:17;;;;;;;16.50;12.32;;;41.70;25.30;;;;;;5054088;28;20203;-56
2023/10/02 12:11:45;;;;;;;18.73;14.27;;;42.00;24.80;;;;;;5054133;28;20197;-57
2023/10/02 12:14:13;;;;;;;19.02;13.88;;;42.20;25.40;;;;;;5053955;28;20289;-57
2023/10/02 12:16:40;;;;;;;20.30;13.98;;;42.10;24.60;;;;;;5053752;28;20199;-56
2023/10/02 12:19:08;;;;;;;17.38;11.90;;;42.00;25.20;;;;;;5053834;28;20210;-57
2023/10/02 12:21:36;;;;;;;17.55;12.77;;;41.70;25.20;;;;;;5053996;28;20693;-57
2023/10/02 12:24:03;;;;;;;17.27;13.15;;;41.30;25.90;;;;;;5054121;28;20218;-57
2023/10/02 12:26:30;;;;;;;19.80;12.02;;;40.70;26.70;;;;;;5053816;28;20202;-57
2023/10/02 12:28:57;;;;;;;19.48;12.95;;;39.90;27.20;;;;;;5053422;28;20772;-57
2023/10/02 12:31:25;;;;;;;18.00;13.90;;;39.30;28.10;;;;;;5053755;28;20198;-56
2023/10/02 12:33:52;;;;;;;16.58;12.77;;;39.00;28.80;;;;;;5053870;28;20202;-57
2023/10/02 12:36:21;;;;;;;15.70;11.85;;;38.90;29.00;;;;;;5053612;28;20198;-57
2023/10/02 12:38:50;;;;;;;17.92;11.93;;;38.80;29.30;;;;;;5053600;28;20309;-57
2023/10/02 12:41:18;;;;;;;17.23;12.90;;;38.80;29.30;;;;;;5053416;28;20593;-57
2023/10/02 12:43:46;;;;;;;19.20;13.55;;;38.70;28.90;;;;;;5053726;28;20218;-56
2023/10/02 12:46:15;;;;;;;17.70;12.35;;;38.50;29.10;;;;;;5054091;28;20209;-56
2023/10/02 12:48:46;;;;;;;16.02;12.73;;;38.10;29.50;;;;;;5054363;28;20226;-56
2023/10/02 12:51:13;;;;;;;16.05;12.55;;;37.60;30.30;;;;;;5053475;28;20234;-56
2023/10/02 12:53:40;;;;;;;19.30;12.13;;;37.10;30.90;;;;;;5054070;28;20297;-56
2023/10/02 12:56:07;;;;;;;18.88;12.00;;;36.70;32.00;;;;;;5054297;28;20202;-56
2023/10/02 12:58:35;;;;;;;16.45;12.88;;;36.40;32.90;;;;;;5053716;28;20205;-57
2023/10/02 13:01:02;;;;;;;16.43;11.43;;;36.20;33.60;;;;;;5053193;28;20220;-57
2023/10/02 13:03:30;;;;;;;20.03;12.00;;;36.10;34.10;;;;;;5053161;28;20202;-57
2023/10/02 13:05:59;;;;;;;17.88;12.00;;;36.20;33.90;;;;;;5053302;28;20206;-57
2023/10/02 13:08:26;;;;;;;12.60;10.90;;;36.50;33.20;;;;;;5053186;28;20202;-57
2023/10/02 13:10:54;;;;;;;15.45;11.15;;;36.80;31.50;;;;;;5052937;28;20704;-57
2023/10/02 13:13:21;;;;;;;15.52;11.70;;;36.90;31.00;;;;;;5053404;28;20202;-56
2023/10/02 13:15:48;;;;;;;15.15;11.02;;;36.80;32.00;;;;;;5053459;28;20297;-56
2023/10/02 13:18:15;;;;;;;17.20;12.33;;;36.40;32.70;;;;;;5053164;28;20209;-56
2023/10/02 13:20:43;;;;;;;14.83;11.20;;;36.00;34.00;;;;;;5053128;28;20231;-56
2023/10/02 13:23:12;;;;;;;17.70;12.80;;;35.60;35.10;;;;;;5053177;28;20305;-56
2023/10/02 13:25:42;;;;;;;14.83;11.33;;;35.20;35.90;;;;;;5053747;28;20214;-56